Les Escoumins, Canada
Current Conditions -  °F | °C
As of 9:00 PM on Sunday 25 Jan 2015 (Local Time) from CYYY Reporting Station
Light Snow Light Snow  
Wind Chill: -20°   Ceiling: 2000
Heat Index:   Visibility: 10mi
Dew Point: -8°   Wind: 26mph
Humidity: 61%   Direction: 300°WNW
Pressure: 29.7"   Gusts: 36mph
Location:  48.35°N, 69.42°W
Report Text: CYYY 260200Z 30023G31KT 10SM -SN DRSN FEW005 BKN020 M16/M22 A2970 RMK SF2SC5 SLP064
Loading
Personal Weather Stations






























Interactive Weather Map New forecast layout! Learn more

10-Day Weather Forecast

Advertisements
Track Severe Weather on mobile